createdAt,value
2018-09-14T00:01:11.424Z,34.83
2018-09-14T00:03:39.621Z,32.93
2018-09-14T00:06:07.822Z,34.90
2018-09-14T00:08:36.336Z,41.37
2018-09-14T00:11:15.704Z,46.83
2018-09-14T00:13:43.922Z,38.63
2018-09-14T00:16:12.164Z,36.87
2018-09-14T00:18:40.400Z,40.63
2018-09-14T00:21:08.647Z,40.03
2018-09-14T00:23:36.859Z,41.03
2018-09-14T00:26:08.012Z,42.65
2018-09-14T00:28:37.144Z,43.10
2018-09-14T00:31:05.391Z,39.18
2018-09-14T00:33:33.584Z,42.43
2018-09-14T00:36:01.820Z,45.90
2018-09-14T00:38:30.032Z,47.50
2018-09-14T00:41:01.674Z,45.70
2018-09-14T00:43:29.878Z,43.10
2018-09-14T00:45:58.124Z,47.87
2018-09-14T00:48:26.448Z,46.37
2018-09-14T00:50:54.692Z,54.23
2018-09-14T00:53:22.900Z,43.43
2018-09-14T00:55:55.122Z,46.88
2018-09-14T00:58:23.297Z,58.90
2018-09-14T01:00:51.824Z,49.17
2018-09-14T01:03:20.330Z,59.15
2018-09-14T01:05:48.712Z,52.43
2018-09-14T01:08:16.928Z,53.93
2018-09-14T01:10:55.527Z,50.90
2018-09-14T01:13:23.728Z,50.35
2018-09-14T01:15:58.484Z,59.10
2018-09-14T01:18:26.711Z,51.13
2018-09-14T01:20:54.913Z,54.13
2018-09-14T01:23:23.835Z,53.75
2018-09-14T01:25:52.020Z,54.13
2018-09-14T01:28:24.318Z,61.70
2018-09-14T01:30:52.740Z,59.70
2018-09-14T01:33:21.944Z,39.67
2018-09-14T01:35:55.548Z,63.23
2018-09-14T01:38:23.772Z,51.70
2018-09-14T01:40:51.993Z,57.17
2018-09-14T01:43:28.259Z,61.00
2018-09-14T01:45:56.536Z,60.00
2018-09-14T01:48:24.996Z,67.50
2018-09-14T01:50:53.244Z,67.93
2018-09-14T01:53:21.494Z,64.87
2018-09-14T01:55:49.739Z,57.75
2018-09-14T01:58:17.943Z,64.57
2018-09-14T02:00:46.161Z,73.77
2018-09-14T02:03:14.413Z,62.53
2018-09-14T02:05:42.720Z,67.22
2018-09-14T02:08:10.947Z,61.50
2018-09-14T02:10:39.144Z,66.27
2018-09-14T02:13:10.819Z,66.13
2018-09-14T02:15:39.051Z,59.95
2018-09-14T02:18:07.267Z,56.40
2018-09-14T02:20:35.441Z,61.73
2018-09-14T02:23:03.804Z,63.07
2018-09-14T02:25:32.898Z,60.13
2018-09-14T02:28:04.348Z,71.30
2018-09-14T02:30:32.576Z,68.00
2018-09-14T02:33:00.822Z,68.57
2018-09-14T02:35:29.024Z,71.20
2018-09-14T02:37:57.232Z,64.37
2018-09-14T02:40:25.447Z,71.63
2018-09-14T02:42:53.712Z,67.20
2018-09-14T02:45:21.952Z,69.20
2018-09-14T02:47:50.168Z,58.87
2018-09-14T02:50:18.431Z,67.30
2018-09-14T02:52:46.619Z,66.73
2018-09-14T02:55:14.880Z,58.90
2018-09-14T02:57:43.068Z,69.00
2018-09-14T03:00:11.356Z,62.73
2018-09-14T03:02:39.600Z,65.55
2018-09-14T03:05:07.806Z,70.13
2018-09-14T03:07:36.016Z,57.70
2018-09-14T03:10:04.488Z,63.13
2018-09-14T03:12:32.737Z,67.33
2018-09-14T03:15:00.963Z,71.73
2018-09-14T03:17:29.393Z,71.50
2018-09-14T03:19:57.643Z,67.33
2018-09-14T03:22:26.448Z,85.20
2018-09-14T03:24:54.708Z,74.47
2018-09-14T03:27:23.472Z,81.87
2018-09-14T03:29:51.663Z,80.70
2018-09-14T03:32:20.004Z,89.83
2018-09-14T03:34:48.476Z,85.20
2018-09-14T03:37:16.852Z,76.20
2018-09-14T03:39:45.214Z,80.67
2018-09-14T03:42:13.460Z,81.33
2018-09-14T03:44:41.715Z,84.60
2018-09-14T03:47:09.952Z,81.33
2018-09-14T03:49:38.230Z,96.23
2018-09-14T03:52:06.406Z,83.58
2018-09-14T03:54:34.596Z,91.30
2018-09-14T03:57:04.523Z,73.97
2018-09-14T03:59:36.351Z,88.95
2018-09-14T04:02:05.688Z,84.60
2018-09-14T04:04:34.030Z,79.03
2018-09-14T04:07:02.304Z,78.53
2018-09-14T04:09:30.549Z,74.17
2018-09-14T04:11:59.362Z,83.95
2018-09-14T04:14:28.295Z,82.55
2018-09-14T04:16:56.702Z,77.33
2018-09-14T04:19:24.920Z,74.37
2018-09-14T04:21:53.659Z,78.07
2018-09-14T04:24:21.915Z,84.10
2018-09-14T04:26:50.138Z,64.37
2018-09-14T04:29:18.307Z,72.33
2018-09-14T04:31:47.479Z,71.10
2018-09-14T04:34:15.729Z,67.47
2018-09-14T04:36:43.931Z,67.23
2018-09-14T04:39:12.932Z,75.67
2018-09-14T04:41:41.932Z,67.10
2018-09-14T04:44:10.144Z,72.10
2018-09-14T04:46:38.519Z,77.03
2018-09-14T04:49:07.572Z,76.53
2018-09-14T04:51:35.746Z,81.90
2018-09-14T04:54:04.024Z,76.90
2018-09-14T04:56:32.264Z,69.73
2018-09-14T04:59:00.495Z,69.83
2018-09-14T05:01:28.667Z,70.28
2018-09-14T05:03:56.887Z,75.93
2018-09-14T05:06:25.252Z,72.90
2018-09-14T05:08:53.467Z,76.07
2018-09-14T05:11:21.647Z,80.27
2018-09-14T05:13:56.591Z,74.53
2018-09-14T05:16:24.781Z,73.83
2018-09-14T05:18:53.021Z,81.40
2018-09-14T05:21:21.275Z,71.77
2018-09-14T05:23:49.470Z,87.90
2018-09-14T05:26:17.764Z,77.00
2018-09-14T05:28:45.976Z,73.20
2018-09-14T05:31:17.541Z,85.00
2018-09-14T05:33:45.756Z,83.47
2018-09-14T05:36:13.992Z,81.00
2018-09-14T05:38:42.197Z,86.72
2018-09-14T05:41:10.408Z,72.85
2018-09-14T05:43:38.659Z,83.07
2018-09-14T05:46:06.871Z,77.23
2018-09-14T05:48:39.093Z,74.70
2018-09-14T05:51:07.288Z,73.83
2018-09-14T05:53:35.489Z,80.70
2018-09-14T05:56:03.797Z,73.22
2018-09-14T05:58:31.996Z,79.50
2018-09-14T06:01:00.215Z,67.20
2018-09-14T06:03:31.516Z,72.93
2018-09-14T06:05:59.757Z,76.43
2018-09-14T06:08:28.860Z,80.50
2018-09-14T06:10:57.063Z,75.83
2018-09-14T06:13:25.306Z,61.30
2018-09-14T06:15:53.511Z,60.60
2018-09-14T06:18:21.754Z,72.58
2018-09-14T06:20:50.033Z,65.63
2018-09-14T06:23:18.241Z,64.83
2018-09-14T06:25:48.852Z,66.62
2018-09-14T06:28:17.041Z,56.63
2018-09-14T06:30:45.241Z,52.00
2018-09-14T06:33:13.452Z,50.60
2018-09-14T06:35:41.671Z,55.23
2018-09-14T06:38:09.879Z,50.23
2018-09-14T06:40:38.098Z,60.33
2018-09-14T06:43:06.292Z,65.47
2018-09-14T06:45:34.617Z,54.30
2018-09-14T06:48:14.840Z,45.87
2018-09-14T06:50:43.058Z,51.60
2018-09-14T06:53:11.333Z,46.57
2018-09-14T06:55:39.472Z,48.20
2018-09-14T06:58:07.693Z,43.40
2018-09-14T07:00:35.868Z,45.10
2018-09-14T07:03:07.848Z,47.23
2018-09-14T07:05:36.064Z,56.30
2018-09-14T07:08:04.299Z,53.50
2018-09-14T07:10:32.700Z,53.40
2018-09-14T07:13:00.961Z,40.20
2018-09-14T07:15:29.128Z,48.53
2018-09-14T07:18:00.451Z,48.90
2018-09-14T07:20:28.692Z,43.20
2018-09-14T07:22:58.642Z,43.28
2018-09-14T07:25:27.784Z,37.60
2018-09-14T07:27:56.024Z,40.65
2018-09-14T07:30:24.259Z,39.20
2018-09-14T07:32:52.486Z,40.57
2018-09-14T07:35:20.739Z,41.93
2018-09-14T07:37:48.969Z,43.23
2018-09-14T07:40:17.508Z,39.85
2018-09-14T07:42:46.034Z,36.00
2018-09-14T07:45:14.244Z,39.37
2018-09-14T07:47:42.432Z,38.37
2018-09-14T07:50:10.599Z,32.73
2018-09-14T07:52:38.780Z,39.30
2018-09-14T07:55:06.991Z,32.28
2018-09-14T07:57:35.169Z,37.47
2018-09-14T08:00:03.348Z,28.83
2018-09-14T08:02:34.497Z,35.20
2018-09-14T08:05:02.706Z,36.90
2018-09-14T08:07:31.871Z,27.10
2018-09-14T08:10:00.041Z,33.43
2018-09-14T08:12:28.412Z,24.72
2018-09-14T08:14:57.020Z,27.80
2018-09-14T08:17:25.225Z,27.27
2018-09-14T08:19:53.416Z,34.43
2018-09-14T08:22:21.579Z,29.37
2018-09-14T08:24:49.797Z,26.70
2018-09-14T08:27:18.664Z,33.50
2018-09-14T08:29:47.127Z,30.23
2018-09-14T08:32:16.266Z,28.00
2018-09-14T08:34:44.436Z,27.53
2018-09-14T08:37:12.646Z,25.65
2018-09-14T08:39:41.132Z,29.65
2018-09-14T08:42:09.349Z,25.63
2018-09-14T08:44:37.551Z,26.50
2018-09-14T08:47:05.924Z,36.05
2018-09-14T08:49:34.092Z,30.65
2018-09-14T08:52:02.303Z,27.30
2018-09-14T08:54:30.724Z,34.50
2018-09-14T08:56:58.899Z,31.70
2018-09-14T08:59:27.105Z,36.23
2018-09-14T09:01:55.313Z,31.60
2018-09-14T09:04:23.551Z,28.83
2018-09-14T09:06:52.087Z,31.65
2018-09-14T09:09:21.183Z,33.50
2018-09-14T09:11:50.182Z,33.30
2018-09-14T09:14:18.400Z,36.50
2018-09-14T09:16:46.657Z,32.90
2018-09-14T09:19:17.975Z,29.40
2018-09-14T09:21:46.213Z,28.67
2018-09-14T09:24:15.241Z,29.25
2018-09-14T09:26:43.431Z,31.57
2018-09-14T09:29:11.638Z,26.00
2018-09-14T09:31:40.053Z,27.55
2018-09-14T09:34:12.636Z,26.37
2018-09-14T09:36:40.823Z,27.65
2018-09-14T09:39:10.291Z,28.25
2018-09-14T09:41:38.737Z,22.60
2018-09-14T09:44:07.320Z,21.68
2018-09-14T09:46:35.573Z,21.33
2018-09-14T09:49:03.769Z,32.40
2018-09-14T09:51:31.968Z,25.35
2018-09-14T09:54:00.208Z,27.80
2018-09-14T09:56:28.593Z,17.45
2018-09-14T09:58:56.824Z,20.03
2018-09-14T10:03:36.917Z,24.07
2018-09-14T10:06:10.364Z,25.97
2018-09-14T10:08:38.599Z,28.80
2018-09-14T10:11:07.741Z,29.05
2018-09-14T10:13:36.784Z,24.57
2018-09-14T10:16:05.004Z,27.07
2018-09-14T10:18:33.204Z,25.90
2018-09-14T10:21:01.488Z,24.17
2018-09-14T10:23:29.888Z,25.70
2018-09-14T10:25:58.392Z,30.23
2018-09-14T10:28:27.184Z,20.40
2018-09-14T10:30:55.447Z,20.43
2018-09-14T10:33:23.690Z,19.52
2018-09-14T10:35:52.061Z,24.20
2018-09-14T10:38:20.309Z,21.52
2018-09-14T10:40:48.664Z,20.55
2018-09-14T10:43:16.824Z,23.60
2018-09-14T10:45:46.207Z,22.50
2018-09-14T10:48:14.416Z,31.80
2018-09-14T10:50:42.616Z,17.93
2018-09-14T10:53:11.485Z,22.25
2018-09-14T10:55:39.779Z,16.17
2018-09-14T10:58:08.029Z,19.10
2018-09-14T11:00:36.395Z,19.13
2018-09-14T11:03:04.598Z,17.47
2018-09-14T11:05:32.801Z,20.90
2018-09-14T11:08:01.065Z,17.47
2018-09-14T11:10:29.292Z,23.07
2018-09-14T11:12:57.594Z,20.20
2018-09-14T11:15:25.872Z,21.02
2018-09-14T11:17:54.121Z,20.43
2018-09-14T11:20:22.566Z,18.23
2018-09-14T11:22:50.791Z,17.67
2018-09-14T11:25:19.195Z,15.50
2018-09-14T11:27:47.351Z,17.70
2018-09-14T11:30:15.556Z,13.30
2018-09-14T11:32:45.161Z,18.80
2018-09-14T11:35:13.436Z,15.63
2018-09-14T11:37:41.760Z,16.30
2018-09-14T11:40:10.461Z,16.90
2018-09-14T11:42:38.783Z,15.00
2018-09-14T11:45:07.067Z,14.60
2018-09-14T11:47:35.192Z,17.50
2018-09-14T11:50:03.456Z,14.37
2018-09-14T11:52:31.719Z,15.27
2018-09-14T11:54:59.969Z,16.13
2018-09-14T11:57:28.237Z,12.45
2018-09-14T11:59:56.540Z,15.67
2018-09-14T12:02:25.500Z,13.23
2018-09-14T12:04:55.965Z,16.17
2018-09-14T12:07:31.400Z,13.25
2018-09-14T12:09:59.612Z,14.33
2018-09-14T12:12:27.903Z,8.87
2018-09-14T12:14:56.170Z,9.73
2018-09-14T12:22:20.187Z,10.80
2018-09-14T12:24:48.414Z,12.60
2018-09-14T12:27:16.669Z,13.10
2018-09-14T12:29:44.896Z,14.17
2018-09-14T12:32:13.179Z,16.70
2018-09-14T12:34:41.396Z,15.57
2018-09-14T12:37:12.824Z,22.43
2018-09-14T12:39:41.121Z,15.67
2018-09-14T12:42:09.922Z,14.90
2018-09-14T12:44:38.160Z,14.17
2018-09-14T12:47:06.516Z,15.48
2018-09-14T12:49:34.737Z,12.80
2018-09-14T12:52:02.938Z,12.68
2018-09-14T12:54:34.341Z,16.55
2018-09-14T12:57:02.561Z,15.75
2018-09-14T12:59:30.760Z,12.10
2018-09-14T13:01:59.903Z,11.28
2018-09-14T13:04:28.143Z,13.43
2018-09-14T13:06:56.464Z,13.05
2018-09-14T13:09:24.693Z,13.63
2018-09-14T13:11:52.911Z,11.93
2018-09-14T13:14:22.921Z,11.43
2018-09-14T13:16:51.472Z,12.63
2018-09-14T13:19:20.158Z,14.07
2018-09-14T13:21:48.396Z,12.03
2018-09-14T13:24:16.623Z,12.20
2018-09-14T13:26:44.881Z,14.58
2018-09-14T13:29:13.156Z,13.15
2018-09-14T13:31:41.376Z,13.50
2018-09-14T13:34:09.651Z,15.60
2018-09-14T13:36:37.865Z,16.60
2018-09-14T13:39:07.592Z,15.60
2018-09-14T13:41:36.017Z,15.87
2018-09-14T13:44:04.263Z,13.20
2018-09-14T13:46:32.504Z,13.33
2018-09-14T13:49:00.711Z,17.60
2018-09-14T13:51:28.958Z,15.03
2018-09-14T13:54:05.492Z,11.50
2018-09-14T13:56:33.695Z,11.85
2018-09-14T13:59:01.900Z,11.40
2018-09-14T14:01:30.209Z,12.90
2018-09-14T14:03:58.343Z,11.93
2018-09-14T14:06:26.540Z,19.07
2018-09-14T14:09:06.189Z,14.00
2018-09-14T14:11:34.460Z,23.85
2018-09-14T14:14:02.682Z,10.37
2018-09-14T14:16:31.064Z,11.55
2018-09-14T14:18:59.235Z,11.33
2018-09-14T14:21:27.465Z,10.58
2018-09-14T14:23:55.715Z,10.70
2018-09-14T14:26:23.964Z,12.93
2018-09-14T14:28:52.180Z,15.90
2018-09-14T14:31:20.445Z,12.75
2018-09-14T14:33:48.689Z,11.23
2018-09-14T14:36:16.854Z,11.65
2018-09-14T14:38:45.064Z,10.33
2018-09-14T14:41:13.308Z,10.90
2018-09-14T14:43:41.516Z,12.00
2018-09-14T14:46:09.769Z,13.00
2018-09-14T14:48:38.041Z,13.80
2018-09-14T14:51:06.291Z,12.65
2018-09-14T14:53:34.524Z,12.50
2018-09-14T14:56:02.813Z,15.23
2018-09-14T14:58:31.000Z,10.57
2018-09-14T15:00:59.229Z,13.60
2018-09-14T15:03:27.529Z,19.23
2018-09-14T15:05:55.929Z,9.47
2018-09-14T15:08:24.188Z,9.63
2018-09-14T15:10:52.496Z,11.93
2018-09-14T15:13:21.107Z,10.57
2018-09-14T15:15:49.361Z,9.57
2018-09-14T15:18:17.548Z,13.70
2018-09-14T15:20:45.772Z,9.53
2018-09-14T15:23:14.010Z,17.05
2018-09-14T15:25:42.240Z,9.70
2018-09-14T15:28:10.467Z,11.93
2018-09-14T15:30:38.668Z,7.30
2018-09-14T15:33:06.852Z,16.33
2018-09-14T15:35:35.394Z,11.90
2018-09-14T15:38:03.608Z,12.03
2018-09-14T15:40:31.841Z,16.57
2018-09-14T15:43:00.145Z,11.43
2018-09-14T15:45:28.657Z,11.50
2018-09-14T15:47:58.093Z,12.17
2018-09-14T15:50:26.337Z,12.17
2018-09-14T15:52:54.666Z,16.63
2018-09-14T15:55:22.867Z,14.37
2018-09-14T15:57:51.064Z,17.13
2018-09-14T16:00:21.572Z,11.03
2018-09-14T16:02:50.976Z,10.58
2018-09-14T16:05:19.160Z,11.75
2018-09-14T16:07:47.632Z,9.53
2018-09-14T16:10:16.011Z,10.23
2018-09-14T16:12:47.169Z,10.40
2018-09-14T16:15:15.428Z,9.27
2018-09-14T16:17:43.657Z,13.30
2018-09-14T16:20:12.749Z,11.30
2018-09-14T16:22:40.976Z,12.07
2018-09-14T16:25:09.176Z,9.55
2018-09-14T16:27:37.389Z,8.10
2018-09-14T16:30:05.988Z,12.20
2018-09-14T16:32:34.175Z,12.10
2018-09-14T16:35:02.391Z,13.10
2018-09-14T16:37:30.588Z,10.63
2018-09-14T16:39:58.855Z,11.57
2018-09-14T16:42:31.400Z,12.73
2018-09-14T16:44:59.607Z,9.28
2018-09-14T16:47:27.820Z,13.80
2018-09-14T16:49:56.032Z,13.73
2018-09-14T16:52:24.232Z,11.37
2018-09-14T16:54:52.409Z,9.33
2018-09-14T16:57:20.614Z,14.35
2018-09-14T16:59:48.838Z,11.50
2018-09-14T17:02:17.065Z,11.73
2018-09-14T17:04:45.339Z,9.70
2018-09-14T17:07:13.517Z,14.20
2018-09-14T17:09:41.741Z,9.77
2018-09-14T17:12:17.464Z,13.33
2018-09-14T17:14:45.691Z,10.08
2018-09-14T17:17:13.861Z,14.30
2018-09-14T17:19:42.190Z,12.85
2018-09-14T17:22:10.388Z,16.30
2018-09-14T17:24:38.640Z,14.90
2018-09-14T17:27:07.069Z,11.78
2018-09-14T17:29:39.108Z,11.87
2018-09-14T17:32:07.566Z,13.78
2018-09-14T17:34:35.819Z,15.07
2018-09-14T17:37:04.488Z,20.62
2018-09-14T17:39:32.684Z,13.80
2018-09-14T17:42:04.989Z,21.57
2018-09-14T17:44:33.328Z,18.63
2018-09-14T17:47:01.565Z,14.68
2018-09-14T17:49:29.725Z,16.67
2018-09-14T17:51:58.100Z,12.50
2018-09-14T17:54:26.329Z,13.78
2018-09-14T17:56:54.626Z,14.33
2018-09-14T17:59:22.839Z,16.53
2018-09-14T18:01:51.084Z,18.17
2018-09-14T18:04:19.276Z,17.02
2018-09-14T18:06:47.504Z,15.70
2018-09-14T18:09:15.708Z,16.73
2018-09-14T18:11:43.957Z,16.52
2018-09-14T18:14:12.369Z,14.57
2018-09-14T18:16:40.590Z,14.07
2018-09-14T18:19:08.837Z,16.33
2018-09-14T18:21:37.099Z,17.82
2018-09-14T18:24:05.343Z,30.80
2018-09-14T18:26:33.541Z,20.87
2018-09-14T18:31:39.591Z,22.42
2018-09-14T18:34:07.816Z,14.03
2018-09-14T18:36:36.087Z,23.10
2018-09-14T18:39:07.566Z,15.47
2018-09-14T18:41:35.883Z,17.67
2018-09-14T18:44:04.191Z,20.07
2018-09-14T18:46:32.780Z,16.12
2018-09-14T18:49:01.008Z,17.77
2018-09-14T18:51:29.361Z,18.33
2018-09-14T18:53:57.620Z,15.38
2018-09-14T18:56:25.769Z,19.80
2018-09-14T18:58:57.898Z,19.20
2018-09-14T19:01:26.593Z,18.97
2018-09-14T19:03:55.252Z,18.80
2018-09-14T19:06:24.108Z,17.95
2018-09-14T19:08:53.167Z,20.75
2018-09-14T19:11:21.484Z,27.27
2018-09-14T19:13:54.885Z,24.98
2018-09-14T19:16:25.007Z,19.15
2018-09-14T19:18:53.713Z,18.97
2018-09-14T19:21:22.030Z,23.40
2018-09-14T19:23:50.304Z,20.23
2018-09-14T19:26:18.688Z,23.15
2018-09-14T19:28:51.203Z,19.57
2018-09-14T19:31:20.192Z,22.93
2018-09-14T19:33:49.304Z,28.20
2018-09-14T19:36:18.596Z,20.25
2018-09-14T19:38:47.129Z,20.13
2018-09-14T19:41:16.656Z,20.37
2018-09-14T19:43:45.048Z,25.45
2018-09-14T19:46:14.117Z,24.52
2018-09-14T19:48:43.146Z,22.10
2018-09-14T19:51:11.533Z,26.90
2018-09-14T19:53:40.544Z,24.27
2018-09-14T19:56:09.959Z,21.55
2018-09-14T19:58:38.685Z,20.20
2018-09-14T20:01:08.417Z,24.50
2018-09-14T20:06:38.104Z,23.20
2018-09-14T20:09:11.170Z,24.18
2018-09-14T20:11:39.506Z,22.75
2018-09-14T20:14:07.832Z,30.10
2018-09-14T20:16:36.872Z,20.62
2018-09-14T20:19:05.646Z,23.92
2018-09-14T20:21:34.049Z,23.83
2018-09-14T20:24:02.369Z,25.53
2018-09-14T20:26:30.549Z,34.50
2018-09-14T20:28:58.871Z,25.53
2018-09-14T20:31:27.134Z,25.73
2018-09-14T20:33:55.324Z,27.73
2018-09-14T20:36:23.574Z,27.53
2018-09-14T20:38:51.836Z,26.40
2018-09-14T20:41:20.058Z,29.47
2018-09-14T20:43:48.303Z,26.30
2018-09-14T20:46:16.517Z,23.43
2018-09-14T20:48:44.761Z,30.60
2018-09-14T20:51:13.167Z,29.27
2018-09-14T20:53:42.715Z,29.50
2018-09-14T20:56:11.007Z,31.77
2018-09-14T20:58:39.212Z,27.40
2018-09-14T21:01:07.481Z,29.83
2018-09-14T21:03:35.671Z,30.70
2018-09-14T21:06:04.099Z,31.63
2018-09-14T21:08:32.312Z,30.88
2018-09-14T21:11:00.540Z,36.75
2018-09-14T21:13:28.781Z,37.47
2018-09-14T21:16:00.634Z,36.77
2018-09-14T21:18:35.929Z,35.30
2018-09-14T21:21:04.180Z,37.00
2018-09-14T21:23:32.372Z,32.43
2018-09-14T21:26:00.546Z,33.50
2018-09-14T21:28:28.814Z,32.10
2018-09-14T21:30:57.057Z,28.23
2018-09-14T21:33:25.395Z,35.30
2018-09-14T21:35:53.612Z,30.53
2018-09-14T21:38:21.844Z,35.60
2018-09-14T21:40:50.046Z,30.25
2018-09-14T21:43:18.455Z,31.40
2018-09-14T21:45:46.646Z,30.17
2018-09-14T21:48:14.848Z,30.20
2018-09-14T21:50:43.101Z,33.95
2018-09-14T21:53:11.327Z,29.55
2018-09-14T21:55:39.507Z,44.05
2018-09-14T21:58:07.721Z,33.37
2018-09-14T22:00:41.168Z,34.18
2018-09-14T22:03:21.690Z,34.70
2018-09-14T22:05:50.833Z,30.80
2018-09-14T22:08:19.623Z,33.43
2018-09-14T22:10:48.806Z,32.17
2018-09-14T22:13:17.574Z,32.50
2018-09-14T22:15:47.524Z,37.32
2018-09-14T22:18:20.617Z,31.12
2018-09-14T22:20:49.061Z,35.98
2018-09-14T22:23:17.362Z,32.03
2018-09-14T22:25:46.651Z,39.42
2018-09-14T22:28:14.996Z,31.02
2018-09-14T22:30:43.224Z,33.30
2018-09-14T22:33:16.822Z,39.73
2018-09-14T22:35:46.311Z,37.50
2018-09-14T22:38:15.508Z,38.87
2018-09-14T22:40:45.255Z,33.93
2018-09-14T22:43:14.523Z,39.43
2018-09-14T22:45:44.674Z,36.63
2018-09-14T22:48:15.031Z,36.40
2018-09-14T22:50:45.270Z,31.33
2018-09-14T22:53:14.406Z,30.72
2018-09-14T22:55:43.401Z,32.90
2018-09-14T22:58:11.744Z,41.48
2018-09-14T23:00:46.276Z,35.03
2018-09-14T23:03:19.792Z,40.95
2018-09-14T23:05:48.850Z,38.40
2018-09-14T23:08:18.756Z,42.10
2018-09-14T23:10:46.980Z,36.28
2018-09-14T23:13:17.195Z,35.85
2018-09-14T23:20:53.067Z,41.27
2018-09-14T23:23:22.592Z,42.60
2018-09-14T23:25:53.077Z,44.50
2018-09-14T23:28:22.939Z,37.13
2018-09-14T23:30:51.211Z,36.20
2018-09-14T23:33:21.253Z,40.17
2018-09-14T23:35:53.141Z,36.70
2018-09-14T23:38:23.251Z,36.17
2018-09-14T23:40:52.205Z,38.80
2018-09-14T23:43:20.483Z,31.70
2018-09-14T23:45:50.323Z,34.55
2018-09-14T23:48:25.469Z,35.77
2018-09-14T23:50:55.291Z,35.48
2018-09-14T23:53:24.652Z,36.45
2018-09-14T23:55:53.659Z,30.90
2018-09-14T23:58:21.923Z,33.73
